Friday, January 18, 2019, 2:38 AM EST
Back to Local

KDDH, Bennington Morse State Airport

Location: Bennington, VT, United States Lat: 42.883
Local Time: 2:38 AM EST ( 7:38 GMT) Lon: -73.25
Time Zone: US/Eastern Elev: 826 ft

Show me the last for .
Show Decoded

2019-01-18 02:18 METAR KDDH 180718Z AUTO VRB04KT 4SM -SN BKN025 OVC037 M06/M09 A3014 RMK AO2
                 P0000 T10561094 =
2019-01-18 02:05 METAR KDDH 180705Z AUTO 21005KT 2 1/2SM -SN BKN023 OVC045 M06/M10 A3015 RMK AO2
                 P0000 T10561100 =
2019-01-18 01:54 METAR KDDH 180654Z AUTO VRB05KT 4SM -SN BKN027 OVC045 M06/M11 A3015 RMK AO2
                 SNB45 SLP224 P0000 T10561106 =
2019-01-18 00:54 METAR KDDH 180554Z AUTO 19009KT 10SM OVC046 M04/M16 A3015 RMK AO2 SLP223
                 T10391161 11039 21083 55019 =
2019-01-17 23:54 METAR KDDH 180454Z AUTO 03006KT 10SM OVC085 M04/M18 A3015 RMK AO2 SLP222
                 T10441178 410441167 =
2019-01-17 22:54 METAR KDDH 180354Z AUTO 07006KT 10SM OVC100 M05/M18 A3018 RMK AO2 SLP235
                 T10501178 =
2019-01-17 21:54 METAR KDDH 180254Z AUTO 09003KT 10SM OVC100 M05/M19 A3021 RMK AO2 SLP244
                 T10501189 56010 =
2019-01-17 20:54 METAR KDDH 180154Z AUTO 11004KT 10SM BKN110 M07/M16 A3022 RMK AO2 SLP249
                 T10721161 =
2019-01-17 19:54 METAR KDDH 180054Z AUTO 35003KT 10SM CLR M08/M17 A3022 RMK AO2 SLP252 T10781167
                 =
2019-01-17 18:54 METAR KDDH 172354Z AUTO 00000KT 10SM CLR M08/M16 A3024 RMK AO2 SLP257 T10781161
                 11056 21083 58008 =
2019-01-17 17:54 METAR KDDH 172254Z AUTO 00000KT 10SM FEW120 M08/M19 A3025 RMK AO2 SLP262
                 T10781189 =
2019-01-17 16:54 METAR KDDH 172154Z AUTO 00000KT 10SM BKN110 M07/M18 A3025 RMK AO2 SLP260
                 T10671183 =
2019-01-17 15:54 METAR KDDH 172054Z AUTO 00000KT 10SM SCT120 M06/M20 A3026 RMK AO2 SLP263
                 T10611200 56017 =
2019-01-17 14:54 METAR KDDH 171954Z AUTO 00000KT 10SM CLR M06/M21 A3028 RMK AO2 SLP269 T10611211
                 =
2019-01-17 13:54 METAR KDDH 171854Z AUTO 00000KT 10SM CLR M07/M22 A3029 RMK AO2 SLP272 T10671222
                 =
2019-01-17 12:54 METAR KDDH 171754Z AUTO 00000KT 10SM CLR M08/M21 A3031 RMK AO2 SLP280 T10781211
                 11078 21167 58025 =
2019-01-17 11:54 METAR KDDH 171654Z AUTO 00000KT 10SM CLR M08/M21 A3035 RMK AO2 SLP293 T10831211
                 =
2019-01-17 10:54 METAR KDDH 171554Z AUTO VRB04KT 10SM CLR M09/M21 A3038 RMK AO2 SLP302 T10941211
                 =
2019-01-17 09:54 METAR KDDH 171454Z AUTO 00000KT 10SM CLR M11/M19 A3039 RMK AO2 SLP305 T11111194
                 51019 =
2019-01-17 08:54 METAR KDDH 171354Z AUTO 00000KT 10SM CLR M13/M18 A3038 RMK AO2 SLP303 T11331183
                 =
2019-01-17 07:54 METAR KDDH 171254Z AUTO 15003KT 10SM CLR M16/M19 A3036 RMK AO2 SLP296 T11561189
                 =
2019-01-17 06:54 METAR KDDH 171154Z AUTO 00000KT 10SM CLR M16/M19 A3033 RMK AO2 SLP286 T11611194
                 11089 21161 53015 =
2019-01-17 05:54 METAR KDDH 171054Z AUTO 22004KT 10SM CLR M16/M19 A3031 RMK AO2 SLP278 T11611194
                 =
2019-01-17 04:54 METAR KDDH 170954Z AUTO 00000KT 10SM CLR M15/M19 A3030 RMK AO2 SLP274 T11501194
                 =
2019-01-17 03:54 METAR KDDH 170854Z AUTO 25003KT 10SM CLR M13/M20 A3029 RMK AO2 SLP269 T11331200
                 51024 =
2019-01-17 02:54 METAR KDDH 170754Z AUTO 34005KT 10SM CLR M12/M21 A3027 RMK AO2 SLP263 T11171206
                 =

Support USWX by starting your Amazon purchase here.